Time;durP1;ratioP1;P1;durP2;ratioP2;P2;SDS_P1;SDS_P2;PMS_P1;PMS_P2;Temp;Humidity;BMP_temperature;BMP_pressure;BME280_temperature;BME280_humidity;BME280_pressure;Samples;Min_cycle;Max_cycle;Signal;HPM_P1;HPM_P2
2024/01/24 00:00:48;;;;;;;6.35;1.17;;;8.00;99.90;;;7.59;100.00;98040.44;5008587;28;20041;-47
2024/01/24 00:03:14;;;;;;;4.20;1.15;;;8.10;99.90;;;7.60;100.00;98048.28;5001167;28;20037;-47
2024/01/24 00:05:39;;;;;;;4.95;0.90;;;8.10;99.90;;;7.63;100.00;98052.63;5003473;28;20068;-47
2024/01/24 00:08:05;;;;;;;3.47;1.13;;;8.20;99.90;;;7.75;100.00;98057.72;5006390;28;20033;-47
2024/01/24 00:10:31;;;;;;;5.13;0.95;;;8.30;99.90;;;7.77;100.00;98048.06;5005478;28;20117;-46
2024/01/24 00:12:57;;;;;;;3.83;1.10;;;8.30;99.90;;;7.83;100.00;98058.44;5001477;28;20025;-47
2024/01/24 00:15:22;;;;;;;4.70;0.70;;;8.40;99.90;;;7.92;100.00;98044.31;5000258;28;20029;-47
2024/01/24 00:17:48;;;;;;;6.35;1.00;;;8.50;99.90;;;7.99;100.00;98045.94;5011683;28;20478;-47
2024/01/24 00:20:14;;;;;;;5.57;1.33;;;8.60;99.90;;;8.02;100.00;98042.38;5007405;28;20033;-47
2024/01/24 00:22:39;;;;;;;5.80;1.00;;;8.60;99.90;;;8.08;100.00;98030.94;5001564;28;20065;-47
2024/01/24 00:25:06;;;;;;;5.90;1.02;;;8.60;99.90;;;8.06;100.00;98017.81;5000458;28;20045;-47
2024/01/24 00:27:31;;;;;;;1.88;0.80;;;8.60;99.90;;;8.02;100.00;98006.50;5012070;28;20466;-47
2024/01/24 00:29:57;;;;;;;3.97;0.70;;;8.60;99.90;;;8.10;100.00;98008.13;5005326;28;20045;-47
2024/01/24 00:32:23;;;;;;;6.18;1.23;;;8.60;99.90;;;8.00;100.00;98002.16;5004803;28;20140;-47
2024/01/24 00:34:49;;;;;;;6.15;1.08;;;8.60;99.90;;;8.04;100.00;97998.59;5005309;28;20037;-47
2024/01/24 00:37:15;;;;;;;4.28;0.90;;;8.60;99.90;;;7.99;100.00;97982.03;5003752;28;20029;-47
2024/01/24 00:39:41;;;;;;;5.53;0.98;;;8.50;99.90;;;7.96;100.00;97980.31;5007718;28;20112;-47
2024/01/24 00:42:06;;;;;;;9.00;0.93;;;8.50;99.90;;;7.91;100.00;97987.41;4999278;28;20422;-47
2024/01/24 00:44:32;;;;;;;4.60;1.00;;;8.50;99.90;;;7.89;100.00;97985.72;5001281;28;22630;-47
2024/01/24 00:46:58;;;;;;;3.17;0.90;;;8.50;99.90;;;7.88;100.00;97990.09;5013482;28;20106;-47
2024/01/24 00:49:25;;;;;;;3.65;0.93;;;8.50;99.90;;;7.88;100.00;97981.34;5012618;28;20796;-47
2024/01/24 00:51:51;;;;;;;3.80;0.60;;;8.50;99.90;;;7.99;100.00;97974.16;5009031;28;20057;-47
2024/01/24 00:54:17;;;;;;;5.53;1.13;;;8.60;99.90;;;7.99;100.00;97984.66;5005965;28;20461;-47
2024/01/24 00:56:43;;;;;;;5.03;0.88;;;8.60;99.90;;;7.97;100.00;97981.22;5008439;28;20033;-47
2024/01/24 00:59:08;;;;;;;1.52;0.60;;;8.60;99.90;;;7.88;100.00;97976.97;5011478;28;20037;-45
2024/01/24 01:01:34;;;;;;;6.03;0.88;;;8.60;99.90;;;7.97;100.00;97991.72;5008459;28;21252;-47
2024/01/24 01:04:00;;;;;;;6.63;0.90;;;8.50;99.90;;;7.89;100.00;98004.09;5010385;28;20037;-47
2024/01/24 01:06:26;;;;;;;6.43;1.00;;;8.50;99.90;;;7.92;100.00;97985.66;5012317;28;20037;-47
2024/01/24 01:08:52;;;;;;;6.78;1.10;;;8.50;99.90;;;7.95;100.00;97993.47;5010103;28;20613;-47
2024/01/24 01:11:17;;;;;;;5.53;1.00;;;8.50;99.90;;;7.93;100.00;97995.25;5007067;28;20030;-47
2024/01/24 01:13:43;;;;;;;3.65;1.05;;;8.50;99.90;;;7.96;100.00;97987.34;5006841;28;20045;-47
2024/01/24 01:16:09;;;;;;;5.70;0.88;;;8.50;99.90;;;7.99;100.00;97984.66;5006743;28;20029;-47
2024/01/24 01:18:35;;;;;;;3.63;1.02;;;8.60;99.90;;;8.06;100.00;97988.03;5011723;28;20150;-47
2024/01/24 01:21:00;;;;;;;4.40;0.90;;;8.60;99.90;;;8.11;100.00;97983.56;5007904;28;20029;-47
2024/01/24 01:23:26;;;;;;;5.05;1.02;;;8.70;99.90;;;8.07;100.00;97977.50;5013740;28;20056;-47
2024/01/24 01:25:53;;;;;;;3.72;0.85;;;8.60;99.90;;;7.96;100.00;97974.22;5008180;28;20030;-47
2024/01/24 01:28:19;;;;;;;3.67;0.88;;;8.60;99.90;;;7.92;100.00;97975.16;5005755;28;20456;-47
2024/01/24 01:30:44;;;;;;;2.08;0.70;;;8.50;99.90;;;8.00;100.00;97971.50;5010597;28;20029;-45
2024/01/24 01:33:10;;;;;;;2.78;0.77;;;8.50;99.90;;;7.91;100.00;97981.28;5006525;28;20398;-47
2024/01/24 01:35:36;;;;;;;7.20;1.10;;;8.50;99.90;;;7.88;100.00;97965.56;5014622;28;20017;-47
2024/01/24 01:38:02;;;;;;;2.92;0.63;;;8.50;99.90;;;7.86;100.00;97975.25;5010517;28;20056;-47
2024/01/24 01:40:28;;;;;;;5.53;0.90;;;8.40;99.90;;;7.65;100.00;97964.22;5006621;28;20379;-47
2024/01/24 01:42:54;;;;;;;5.13;1.00;;;8.40;99.90;;;7.64;100.00;97991.34;5006619;28;20139;-47
2024/01/24 01:45:19;;;;;;;3.30;1.13;;;8.30;99.90;;;7.51;100.00;97982.81;5006123;28;20418;-47
2024/01/24 01:47:47;;;;;;;3.83;0.95;;;8.20;99.90;;;7.61;100.00;97983.53;5016782;28;20052;-47
2024/01/24 01:50:14;;;;;;;4.20;1.00;;;8.20;99.90;;;7.56;100.00;97959.97;5011767;28;20041;-47
2024/01/24 01:52:41;;;;;;;6.68;0.95;;;8.20;99.90;;;7.59;100.00;97975.69;5012022;28;20046;-47
2024/01/24 01:55:08;;;;;;;5.13;0.98;;;8.20;99.90;;;7.62;100.00;97980.88;5015274;28;20176;-46
2024/01/24 01:57:34;;;;;;;4.18;0.90;;;8.20;99.90;;;7.73;100.00;97983.31;5017363;28;20021;-47
2024/01/24 02:00:00;;;;;;;2.85;0.65;;;8.30;99.90;;;7.78;100.00;97978.88;5016883;28;20044;-47
2024/01/24 02:02:26;;;;;;;2.97;0.63;;;8.40;99.90;;;7.84;100.00;97985.78;5010240;28;20037;-47
2024/01/24 02:04:52;;;;;;;2.05;0.47;;;8.40;99.90;;;7.78;100.00;97981.50;5014940;28;20070;-47
2024/01/24 02:07:18;;;;;;;5.28;1.00;;;8.50;99.90;;;7.87;100.00;97995.38;5011238;28;20128;-47
2024/01/24 02:09:44;;;;;;;4.18;0.80;;;8.50;99.90;;;7.84;100.00;97986.66;5014369;28;20028;-47
2024/01/24 02:12:09;;;;;;;5.57;1.15;;;8.50;99.90;;;7.81;100.00;97985.84;5006140;28;20422;-47
2024/01/24 02:14:36;;;;;;;3.33;0.68;;;8.50;99.90;;;7.84;100.00;97981.41;5007797;28;20049;-47
2024/01/24 02:17:01;;;;;;;3.13;0.85;;;8.50;99.90;;;7.80;100.00;97971.81;5005192;28;20051;-47
2024/01/24 02:19:27;;;;;;;5.15;0.80;;;8.40;99.90;;;7.71;100.00;97958.84;5015589;28;20030;-47
2024/01/24 02:21:53;;;;;;;3.20;0.80;;;8.40;99.90;;;7.69;100.00;97965.03;5013209;28;20038;-47
2024/01/24 02:24:19;;;;;;;3.72;0.85;;;8.30;99.90;;;7.64;100.00;97963.38;5002348;28;20647;-47
2024/01/24 02:26:44;;;;;;;1.80;0.60;;;8.20;99.90;;;7.55;100.00;97952.97;5008635;28;20046;-47
2024/01/24 02:29:11;;;;;;;4.75;0.70;;;8.20;99.90;;;7.49;100.00;97953.09;5005431;28;20029;-47
2024/01/24 02:31:37;;;;;;;3.95;0.75;;;8.10;99.90;;;7.45;100.00;97952.28;5011696;28;20029;-47
2024/01/24 02:34:03;;;;;;;4.32;0.90;;;8.10;99.90;;;7.46;100.00;97958.38;5003490;28;20517;-46
2024/01/24 02:36:29;;;;;;;3.40;0.70;;;8.00;99.90;;;7.41;100.00;97941.84;5010849;28;20033;-47
2024/01/24 02:38:55;;;;;;;2.28;0.80;;;8.00;99.90;;;7.38;100.00;97941.91;5003840;28;20053;-47
2024/01/24 02:41:21;;;;;;;1.63;0.50;;;8.00;99.90;;;7.35;100.00;97934.06;5004612;28;20613;-47
2024/01/24 02:43:47;;;;;;;3.97;0.80;;;7.90;99.90;;;7.35;100.00;97932.31;5008537;28;20033;-46
2024/01/24 02:46:13;;;;;;;3.22;0.60;;;7.90;99.90;;;7.29;100.00;97923.69;5003920;28;20049;-47
2024/01/24 02:48:38;;;;;;;4.85;1.52;;;7.90;99.90;;;7.23;100.00;97917.63;5011033;28;20307;-47
2024/01/24 02:51:04;;;;;;;4.05;0.73;;;7.90;99.90;;;7.24;100.00;97918.50;5015208;28;20087;-46
2024/01/24 02:53:30;;;;;;;1.55;0.70;;;7.90;99.90;;;7.24;100.00;97927.22;5006043;28;20034;-47
2024/01/24 02:55:55;;;;;;;2.47;0.55;;;7.90;99.90;;;7.21;100.00;97922.03;5003929;28;20029;-47
2024/01/24 02:58:21;;;;;;;1.83;0.70;;;7.80;99.90;;;7.20;100.00;97908.94;5005578;28;20028;-46
2024/01/24 03:00:47;;;;;;;5.25;0.70;;;7.80;99.90;;;7.23;100.00;97903.63;5006573;28;20087;-46
2024/01/24 03:03:12;;;;;;;5.10;0.90;;;7.90;99.90;;;7.23;100.00;97898.38;5000446;28;20036;-47
2024/01/24 03:05:38;;;;;;;2.45;0.70;;;7.90;99.90;;;7.23;100.00;97915.00;5007376;28;20028;-47
2024/01/24 03:08:04;;;;;;;3.20;0.80;;;7.90;99.90;;;7.29;100.00;97918.44;5002444;28;20187;-46
2024/01/24 03:10:30;;;;;;;1.90;0.70;;;7.90;99.90;;;7.32;100.00;97921.88;5001865;28;20033;-46
2024/01/24 03:12:56;;;;;;;3.47;0.60;;;7.90;99.90;;;7.40;100.00;97925.22;5002227;28;20551;-44
2024/01/24 03:15:21;;;;;;;2.65;0.55;;;8.00;99.90;;;7.49;100.00;97929.47;5009322;28;20044;-46
2024/01/24 03:17:47;;;;;;;1.67;0.75;;;8.10;99.90;;;7.58;100.00;97936.34;5016128;28;20072;-46
2024/01/24 03:20:14;;;;;;;2.00;0.52;;;8.20;99.90;;;7.71;100.00;97934.38;5004524;28;20657;-46
2024/01/24 03:22:40;;;;;;;2.55;0.77;;;8.30;99.90;;;7.84;100.00;97928.88;5009133;28;20830;-46
2024/01/24 03:25:07;;;;;;;5.00;1.02;;;8.40;99.90;;;7.95;100.00;97925.19;5002640;28;20393;-46
2024/01/24 03:27:33;;;;;;;1.95;0.68;;;8.50;99.90;;;8.03;100.00;97918.03;5004953;28;20090;-46
2024/01/24 03:29:59;;;;;;;2.78;0.82;;;8.60;99.90;;;8.09;100.00;97923.16;5005564;28;20026;-45
2024/01/24 03:32:25;;;;;;;1.42;0.57;;;8.70;99.90;;;8.14;100.00;97926.59;5004233;28;20795;-46
2024/01/24 03:34:56;;;;;;;6.03;0.77;;;8.80;99.90;;;8.20;100.00;97931.75;5004572;28;20045;-46
2024/01/24 03:37:22;;;;;;;3.10;0.90;;;8.80;99.90;;;8.32;100.00;97922.72;5005531;28;20029;-46
2024/01/24 03:39:48;;;;;;;3.28;0.90;;;8.90;99.90;;;8.35;100.00;97925.31;5006986;28;20646;-46
2024/01/24 03:42:14;;;;;;;4.68;0.82;;;9.00;99.90;;;8.35;100.00;97912.16;5004591;28;20482;-46
2024/01/24 03:44:40;;;;;;;4.50;0.80;;;9.00;99.90;;;8.38;100.00;97930.50;5003659;28;20041;-46
2024/01/24 03:47:06;;;;;;;3.53;0.60;;;9.00;99.90;;;8.44;100.00;97936.59;5007277;28;20037;-46
2024/01/24 03:49:32;;;;;;;4.03;0.75;;;9.00;99.90;;;8.37;100.00;97918.25;5008909;28;20063;-46
2024/01/24 03:51:58;;;;;;;2.85;0.70;;;9.10;99.90;;;8.51;100.00;97925.91;5004943;28;20555;-46
2024/01/24 03:54:23;;;;;;;6.35;0.95;;;9.10;99.90;;;8.50;100.00;97918.03;5002095;28;20037;-46
2024/01/24 03:56:49;;;;;;;4.35;0.73;;;9.10;99.90;;;8.52;100.00;97918.88;5010306;28;20030;-46
2024/01/24 03:59:16;;;;;;;2.80;0.65;;;9.10;99.90;;;8.55;100.00;97911.78;4983688;28;20088;-46
2024/01/24 04:01:42;;;;;;;6.03;1.02;;;9.20;99.90;;;8.57;100.00;97915.25;5007504;28;20028;-46
2024/01/24 04:04:08;;;;;;;3.10;0.60;;;9.20;99.90;;;8.57;100.00;97903.88;5002594;28;20124;-46
2024/01/24 04:06:35;;;;;;;4.97;0.80;;;9.20;99.90;;;8.57;100.00;97924.91;5003477;28;20492;-46
2024/01/24 04:09:03;;;;;;;3.55;0.90;;;9.20;99.90;;;8.58;100.00;97919.63;5001839;28;20116;-46
2024/01/24 04:11:28;;;;;;;3.35;0.85;;;9.20;99.90;;;8.61;100.00;97913.44;5001406;28;20029;-46
2024/01/24 04:13:54;;;;;;;3.60;0.80;;;9.20;99.90;;;8.58;100.00;97905.63;5004684;28;20038;-46
2024/01/24 04:16:20;;;;;;;3.30;0.73;;;9.20;99.90;;;8.61;100.00;97913.44;5002326;28;20433;-46
2024/01/24 04:18:46;;;;;;;3.33;0.80;;;9.20;99.90;;;8.61;100.00;97926.56;5007140;28;20033;-46
2024/01/24 04:21:12;;;;;;;3.80;0.70;;;9.20;99.90;;;8.59;100.00;97929.22;4999829;28;20112;-46
2024/01/24 04:23:38;;;;;;;2.85;0.88;;;9.20;99.90;;;8.58;100.00;97927.50;5005704;28;20140;-46
2024/01/24 04:26:04;;;;;;;4.32;0.95;;;9.20;99.90;;;8.63;100.00;97939.69;5006289;28;20052;-46
2024/01/24 04:28:31;;;;;;;2.75;0.70;;;9.30;99.90;;;8.68;100.00;97938.69;5000646;28;20033;-46
2024/01/24 04:30:56;;;;;;;3.22;0.90;;;9.30;99.90;;;8.65;100.00;97923.00;5005716;28;20018;-46
2024/01/24 04:33:22;;;;;;;2.47;0.70;;;9.30;99.90;;;8.77;100.00;97940.28;5011226;28;20620;-46
2024/01/24 04:35:48;;;;;;;4.68;0.95;;;9.40;99.90;;;8.76;100.00;97947.31;5014669;28;20081;-46
2024/01/24 04:38:14;;;;;;;3.30;0.90;;;9.40;99.90;;;8.67;100.00;97920.31;5005386;28;20073;-46
2024/01/24 04:40:39;;;;;;;5.18;0.70;;;9.40;99.90;;;8.72;100.00;97931.59;5006560;28;20505;-46
2024/01/24 04:43:07;;;;;;;2.35;0.80;;;9.40;99.90;;;8.78;100.00;97942.03;5005348;28;20038;-46
2024/01/24 04:45:32;;;;;;;1.33;0.80;;;9.40;99.90;;;8.81;100.00;97944.59;5011000;28;20391;-45
2024/01/24 04:47:58;;;;;;;3.15;0.77;;;9.40;99.90;;;8.84;100.00;97938.38;5013355;28;20033;-46
2024/01/24 04:50:24;;;;;;;1.83;0.80;;;9.50;99.90;;;8.85;100.00;97933.09;5008881;28;20671;-46
2024/01/24 04:52:49;;;;;;;2.92;0.80;;;9.50;99.90;;;8.85;100.00;97943.63;5006413;28;20164;-45
2024/01/24 04:55:15;;;;;;;5.40;1.08;;;9.50;99.90;;;8.88;100.00;97943.56;4999402;28;20038;-46
2024/01/24 04:57:42;;;;;;;3.85;0.98;;;9.50;99.90;;;8.92;100.00;97942.59;5002031;28;20154;-46
2024/01/24 05:00:09;;;;;;;2.05;0.80;;;9.50;99.90;;;8.97;100.00;97934.56;5007093;28;20026;-46
2024/01/24 05:02:35;;;;;;;3.00;0.77;;;9.50;99.90;;;9.00;100.00;97928.41;4994706;28;20524;-46
2024/01/24 05:05:01;;;;;;;2.55;0.68;;;9.60;99.90;;;9.04;100.00;97940.56;4993765;28;20037;-46
2024/01/24 05:07:27;;;;;;;4.75;0.98;;;9.60;99.90;;;9.11;100.00;97947.44;5001948;28;20033;-46
2024/01/24 05:09:53;;;;;;;2.90;0.90;;;9.70;99.90;;;9.15;100.00;97938.56;5005340;28;20583;-46
2024/01/24 05:12:19;;;;;;;1.77;0.82;;;9.70;99.90;;;9.26;100.00;97931.31;5001586;28;20041;-46
2024/01/24 05:14:45;;;;;;;1.63;0.80;;;9.80;99.90;;;9.36;100.00;97924.91;5003091;28;20033;-46
2024/01/24 05:17:11;;;;;;;2.20;0.90;;;9.90;99.90;;;9.41;100.00;97918.69;5004015;28;20029;-46
2024/01/24 05:19:36;;;;;;;1.58;0.80;;;10.00;99.90;;;9.60;100.00;97922.59;5003025;28;20716;-46
2024/01/24 05:22:02;;;;;;;3.22;0.93;;;10.10;99.90;;;9.65;100.00;97917.22;5000978;28;20036;-46
2024/01/24 05:24:28;;;;;;;3.30;0.88;;;10.20;99.90;;;9.68;100.00;97930.31;5004090;28;20367;-46
2024/01/24 05:26:54;;;;;;;3.97;0.88;;;10.20;99.90;;;9.85;100.00;97950.94;5009849;28;20033;-46
2024/01/24 05:29:19;;;;;;;4.22;0.93;;;10.30;99.90;;;9.85;100.00;97943.03;5005629;28;20168;-46
2024/01/24 05:31:45;;;;;;;3.28;0.80;;;10.40;99.90;;;9.93;100.00;97946.38;5003490;28;20545;-46
2024/01/24 05:34:12;;;;;;;4.20;1.17;;;10.50;99.90;;;9.97;100.00;97941.88;5004866;28;20048;-46
2024/01/24 05:36:39;;;;;;;2.22;0.95;;;10.50;99.90;;;9.99;100.00;97937.44;5007488;28;20038;-46
2024/01/24 05:39:06;;;;;;;3.05;1.02;;;10.50;99.90;;;9.99;100.00;97951.47;5009336;28;20543;-46
2024/01/24 05:41:33;;;;;;;3.22;0.90;;;10.50;99.90;;;10.00;100.00;97926.00;5011526;28;20542;-46
2024/01/24 05:43:59;;;;;;;3.72;0.80;;;10.50;99.90;;;9.98;100.00;97930.41;5018093;28;20120;-46
2024/01/24 05:46:25;;;;;;;3.55;1.10;;;10.50;99.90;;;10.02;100.00;97932.09;5019343;28;20057;-46
2024/01/24 05:48:51;;;;;;;5.63;1.52;;;10.60;99.90;;;10.00;100.00;97937.41;5019739;28;20033;-46
2024/01/24 05:51:16;;;;;;;2.10;0.90;;;10.60;99.90;;;9.92;100.00;97942.88;5015352;28;20029;-46
2024/01/24 05:53:42;;;;;;;4.63;0.90;;;10.60;99.90;;;9.97;100.00;97969.09;5019117;28;20029;-47
2024/01/24 05:56:08;;;;;;;2.55;0.77;;;10.50;99.90;;;9.95;100.00;97941.91;5017770;28;20474;-46
2024/01/24 05:58:35;;;;;;;3.88;0.93;;;10.50;99.90;;;9.89;100.00;97906.06;5014367;28;20720;-46
2024/01/24 06:01:01;;;;;;;2.83;0.73;;;10.50;99.90;;;9.93;100.00;97891.03;5030518;28;20013;-46
2024/01/24 06:03:27;;;;;;;3.17;0.90;;;10.50;99.90;;;9.92;100.00;97900.72;5015466;28;20044;-46
2024/01/24 06:05:53;;;;;;;3.28;0.80;;;10.50;99.90;;;9.96;100.00;97887.44;5020325;28;20405;-46
2024/01/24 06:08:18;;;;;;;3.13;0.90;;;10.50;99.90;;;9.99;100.00;97879.47;5016267;28;20048;-46
2024/01/24 06:10:44;;;;;;;3.20;0.80;;;10.50;99.90;;;10.03;100.00;97894.28;5014657;28;20048;-46
2024/01/24 06:13:10;;;;;;;0.88;0.60;;;10.50;99.90;;;9.99;100.00;97895.28;5019049;28;20033;-46
2024/01/24 06:15:35;;;;;;;3.30;0.70;;;10.50;99.90;;;10.00;100.00;97918.94;5015133;28;20029;-46
2024/01/24 06:18:02;;;;;;;3.38;0.90;;;10.50;99.90;;;10.00;100.00;97924.22;5018543;28;20103;-46
2024/01/24 06:20:28;;;;;;;5.20;0.80;;;10.60;99.90;;;10.01;100.00;97925.94;5017027;28;20053;-46
2024/01/24 06:22:53;;;;;;;1.60;0.70;;;10.50;99.90;;;10.00;100.00;97918.94;5030451;28;20215;-46
2024/01/24 06:25:19;;;;;;;1.33;0.60;;;10.60;99.90;;;10.07;100.00;97932.84;5017317;28;20315;-45
2024/01/24 06:27:45;;;;;;;1.63;0.65;;;10.60;99.90;;;10.06;100.00;97933.72;5015531;28;20029;-46
2024/01/24 06:30:11;;;;;;;2.60;0.85;;;10.60;99.90;;;10.09;100.00;97936.28;5018635;28;20394;-46
2024/01/24 06:32:37;;;;;;;0.85;0.45;;;10.60;99.90;;;10.08;100.00;97942.44;5016603;28;20026;-47
2024/01/24 06:35:03;;;;;;;4.63;0.70;;;10.60;99.90;;;9.97;100.00;97934.84;5017479;28;20489;-46
2024/01/24 06:37:29;;;;;;;1.85;0.70;;;10.60;99.90;;;10.07;100.00;97941.59;5015242;28;20040;-46
2024/01/24 06:39:54;;;;;;;3.13;0.52;;;10.60;99.90;;;10.07;100.00;97933.69;5017934;28;20021;-46
2024/01/24 06:42:20;;;;;;;3.28;0.77;;;10.60;99.90;;;10.11;100.00;97926.56;5012125;28;20113;-46
2024/01/24 06:44:46;;;;;;;2.60;0.60;;;10.60;99.90;;;10.13;100.00;97927.38;5016860;28;20017;-46
2024/01/24 06:47:12;;;;;;;2.00;0.63;;;10.70;99.90;;;10.26;100.00;97933.19;5014308;28;20115;-46
2024/01/24 06:49:37;;;;;;;2.15;0.70;;;10.70;99.90;;;10.27;100.00;97940.22;5015258;28;20045;-46
2024/01/24 06:52:03;;;;;;;1.15;0.57;;;10.80;99.90;;;10.28;100.00;97926.09;5013812;28;20057;-46
2024/01/24 06:54:29;;;;;;;4.47;0.70;;;10.80;99.90;;;10.32;100.00;97914.63;5016467;28;20092;-46
2024/01/24 06:56:54;;;;;;;3.80;0.55;;;10.80;99.90;;;10.32;100.00;97914.63;5014935;28;20073;-46
2024/01/24 06:59:20;;;;;;;1.85;0.57;;;10.90;99.90;;;10.21;100.00;97904.34;5015300;28;22261;-46
2024/01/24 07:01:46;;;;;;;1.60;0.47;;;10.80;99.90;;;10.28;100.00;97919.06;5016292;28;20033;-46
2024/01/24 07:04:11;;;;;;;2.60;0.65;;;10.80;99.90;;;10.24;100.00;97917.41;5017403;28;20684;-46
2024/01/24 07:06:37;;;;;;;1.13;0.60;;;10.80;99.90;;;10.23;100.00;97920.09;5015019;28;20191;-46
2024/01/24 07:09:03;;;;;;;3.20;0.63;;;10.80;99.90;;;10.18;100.00;97895.66;5014393;28;20041;-46
2024/01/24 07:11:29;;;;;;;1.13;0.80;;;10.80;99.90;;;10.23;100.00;97899.88;5015323;28;20095;-46
2024/01/24 07:13:54;;;;;;;0.73;0.50;;;10.80;99.90;;;10.23;100.00;97883.19;5013132;28;20262;-46
2024/01/24 07:16:20;;;;;;;2.92;0.98;;;10.80;99.90;;;10.27;100.00;97898.88;5015039;28;20105;-46
2024/01/24 07:18:46;;;;;;;2.25;0.80;;;10.80;99.90;;;10.28;100.00;97881.28;5012850;28;20542;-46
2024/01/24 07:21:13;;;;;;;1.95;0.60;;;10.80;99.90;;;10.30;100.00;97879.47;5016018;28;20033;-45
2024/01/24 07:23:39;;;;;;;1.27;0.55;;;10.90;99.90;;;10.33;100.00;97887.34;5013592;28;20029;-46
2024/01/24 07:26:05;;;;;;;1.50;0.50;;;10.90;99.90;;;10.36;100.00;97894.31;5016128;28;20083;-46
2024/01/24 07:28:31;;;;;;;1.45;0.65;;;10.90;99.90;;;10.27;100.00;97875.16;5009842;28;20040;-46
2024/01/24 07:30:56;;;;;;;0.43;0.25;;;10.90;99.90;;;10.41;100.00;97893.25;5015015;28;20036;-46
2024/01/24 07:33:22;;;;;;;2.88;0.50;;;10.90;99.90;;;10.36;100.00;97886.41;5016062;28;20037;-46
2024/01/24 07:35:48;;;;;;;0.75;0.50;;;10.90;99.90;;;10.49;100.00;97900.94;5014453;28;20255;-46
2024/01/24 07:38:14;;;;;;;1.25;0.68;;;11.00;99.90;;;10.46;100.00;97883.47;5014667;28;20111;-46
2024/01/24 07:40:39;;;;;;;2.85;0.70;;;11.00;99.90;;;10.48;100.00;97899.22;5012648;28;20467;-46
2024/01/24 07:43:06;;;;;;;0.80;0.50;;;11.00;99.90;;;10.53;100.00;97896.44;5014493;28;20187;-46
2024/01/24 07:45:32;;;;;;;1.42;0.93;;;11.00;99.90;;;10.54;100.00;97893.78;5010473;28;20556;-46
2024/01/24 07:47:57;;;;;;;0.90;0.50;;;11.10;99.90;;;10.57;100.00;97892.81;5011796;28;20418;-46
2024/01/24 07:50:23;;;;;;;2.33;0.40;;;11.10;99.90;;;10.57;100.00;97891.06;5014902;28;20037;-46
2024/01/24 07:52:49;;;;;;;0.82;0.50;;;11.10;99.90;;;10.61;100.00;97903.22;5013617;28;20625;-46
2024/01/24 07:55:15;;;;;;;2.33;0.50;;;11.10;99.90;;;10.65;100.00;97914.56;5031312;28;20025;-46
2024/01/24 07:57:41;;;;;;;2.03;0.85;;;11.20;99.90;;;10.66;100.00;97911.88;5013283;28;20025;-47
2024/01/24 08:00:07;;;;;;;0.93;0.55;;;11.20;99.90;;;10.75;100.00;97900.19;5011341;28;20540;-46
2024/01/24 08:02:33;;;;;;;0.75;0.40;;;11.30;99.90;;;10.81;100.00;97913.19;5010597;28;20041;-46
2024/01/24 08:04:59;;;;;;;2.60;0.55;;;11.30;99.90;;;10.84;100.00;97928.09;5009155;28;20375;-46
2024/01/24 08:07:25;;;;;;;1.27;0.47;;;11.40;99.90;;;10.97;100.00;97918.88;5012405;28;20381;-47
2024/01/24 08:09:50;;;;;;;3.05;0.50;;;11.40;99.90;;;10.99;100.00;97916.19;5011330;28;20489;-46
2024/01/24 08:12:16;;;;;;;1.70;0.80;;;11.50;99.90;;;11.06;100.00;97923.03;5012389;28;20032;-46
2024/01/24 08:14:42;;;;;;;1.65;0.60;;;11.60;99.90;;;11.09;100.00;97933.50;5010649;28;20037;-46
2024/01/24 08:17:10;;;;;;;1.45;0.40;;;11.60;99.90;;;11.14;100.00;97934.19;5008006;28;20025;-46
2024/01/24 08:19:36;;;;;;;1.13;0.65;;;11.70;99.90;;;11.18;100.00;97925.28;5011291;28;20040;-46
2024/01/24 08:22:03;;;;;;;2.00;0.50;;;11.70;99.90;;;11.25;100.00;97941.78;5019217;28;20037;-46
2024/01/24 08:24:29;;;;;;;0.70;0.32;;;11.70;99.90;;;11.27;100.00;97940.84;5006130;28;20683;-47
2024/01/24 08:26:54;;;;;;;2.05;0.40;;;11.80;99.90;;;11.30;100.00;97947.78;5009581;28;20033;-46
2024/01/24 08:29:21;;;;;;;1.02;0.40;;;11.80;99.90;;;11.33;100.00;97942.44;5015517;28;20044;-46
2024/01/24 08:31:46;;;;;;;0.80;0.60;;;11.90;99.90;;;11.38;100.00;97937.88;5010180;28;20293;-46
2024/01/24 08:34:12;;;;;;;2.17;0.50;;;11.90;99.90;;;11.39;100.00;97933.44;5015607;28;20041;-47
2024/01/24 08:36:39;;;;;;;1.52;0.40;;;11.90;99.90;;;11.42;100.00;97934.22;5012945;28;20532;-46
2024/01/24 08:39:06;;;;;;;1.58;0.30;;;11.90;99.90;;;11.46;100.00;97932.34;5015628;28;20022;-46
2024/01/24 08:41:33;;;;;;;0.93;0.30;;;12.00;99.90;;;11.52;100.00;97941.84;5013921;28;20038;-46
2024/01/24 08:43:59;;;;;;;0.63;0.20;;;12.00;99.90;;;11.56;100.00;97949.63;5017186;28;20268;-46
2024/01/24 08:46:24;;;;;;;0.32;0.28;;;12.10;99.90;;;11.65;100.00;97954.59;5009877;28;20294;-46
2024/01/24 08:48:51;;;;;;;0.70;0.20;;;12.10;99.90;;;11.73;100.00;97964.91;5010045;28;20041;-46
2024/01/24 08:51:17;;;;;;;0.38;0.30;;;12.20;99.90;;;11.74;100.00;97950.81;5011769;28;20048;-46
2024/01/24 08:53:43;;;;;;;0.25;0.20;;;12.30;99.90;;;11.84;100.00;97948.72;5010870;28;20099;-45
2024/01/24 08:56:09;;;;;;;0.50;0.40;;;12.40;99.90;;;11.87;100.00;97953.03;5011699;28;20025;-48
2024/01/24 08:58:37;;;;;;;0.52;0.20;;;12.40;99.90;;;11.91;100.00;97957.34;5011994;28;20038;-45
2024/01/24 09:01:02;;;;;;;0.80;0.30;;;12.50;99.90;;;11.89;100.00;97964.44;5012534;28;20057;-46
2024/01/24 09:03:28;;;;;;;0.50;0.30;;;12.40;99.90;;;11.90;100.00;97958.19;5010094;28;20056;-46
2024/01/24 09:05:54;;;;;;;1.23;0.50;;;12.50;99.90;;;11.89;100.00;97964.44;5013440;28;20413;-45
2024/01/24 09:08:20;;;;;;;1.05;0.40;;;12.50;99.90;;;11.96;100.00;97985.34;5012079;28;20095;-46
2024/01/24 09:10:46;;;;;;;3.10;0.40;;;12.50;99.90;;;11.97;100.00;97975.63;5011944;28;20033;-45
2024/01/24 09:13:12;;;;;;;0.98;0.25;;;12.60;99.90;;;11.99;100.00;97977.31;5017671;28;20505;-46
2024/01/24 09:15:38;;;;;;;1.17;0.25;;;12.60;99.90;;;12.09;100.00;97984.94;5010875;28;20117;-45
2024/01/24 09:18:06;;;;;;;1.13;0.30;;;12.60;99.90;;;12.08;100.00;97999.94;5014228;28;20390;-46
2024/01/24 09:20:32;;;;;;;0.60;0.20;;;12.70;99.90;;;12.13;100.00;97991.84;5018606;28;20030;-46
2024/01/24 09:22:58;;;;;;;0.75;0.38;;;12.70;99.90;;;12.21;100.00;97981.88;5017904;28;20264;-46
2024/01/24 09:25:24;;;;;;;0.17;0.17;;;12.80;99.90;;;12.22;100.00;97981.81;5016330;28;20115;-46
2024/01/24 09:27:50;;;;;;;1.25;0.30;;;12.80;99.90;;;12.23;100.00;97980.03;5014487;28;20044;-46
2024/01/24 09:30:15;;;;;;;0.60;0.30;;;12.80;99.90;;;12.26;100.00;97987.00;5018171;28;20072;-45
2024/01/24 09:32:41;;;;;;;1.58;0.20;;;12.80;99.90;;;12.26;100.00;97990.53;5016827;28;20038;-46
2024/01/24 09:35:07;;;;;;;0.47;0.20;;;12.80;99.90;;;12.17;100.00;97999.63;5018983;28;20126;-46
2024/01/24 09:37:33;;;;;;;1.05;0.30;;;12.80;99.90;;;12.13;100.00;97991.84;5017675;28;20501;-46
2024/01/24 09:39:59;;;;;;;0.45;0.28;;;12.70;99.90;;;12.10;100.00;97987.53;5015332;28;20147;-46
2024/01/24 09:42:26;;;;;;;0.15;0.15;;;12.70;99.90;;;12.05;100.00;97978.03;5016549;28;20025;-46
2024/01/24 09:44:52;;;;;;;1.27;0.20;;;12.60;99.90;;;12.01;100.00;97987.84;5012229;28;20332;-46
2024/01/24 09:47:22;;;;;;;0.13;0.13;;;12.60;99.90;;;11.94;100.00;97970.47;5015746;28;20040;-46
2024/01/24 09:49:49;;;;;;;2.03;0.30;;;12.50;99.90;;;11.92;100.00;97967.00;5017816;28;20120;-46
2024/01/24 09:52:17;;;;;;;1.77;0.20;;;12.50;99.90;;;11.78;100.00;97963.00;5017118;28;20037;-46
2024/01/24 09:54:45;;;;;;;0.20;0.20;;;12.40;99.90;;;11.73;100.00;97966.69;5017716;28;20482;-46
2024/01/24 09:57:12;;;;;;;0.40;0.20;;;12.30;99.90;;;11.71;100.00;97969.38;5015201;28;20025;-46
2024/01/24 09:59:39;;;;;;;1.17;0.75;;;12.30;99.90;;;11.66;100.00;97960.75;5015044;28;20173;-46
2024/01/24 10:02:06;;;;;;;0.45;0.30;;;12.20;99.90;;;11.67;100.00;97967.78;5014320;28;20034;-46
2024/01/24 10:04:37;;;;;;;0.30;0.20;;;12.20;99.90;;;11.63;100.00;97976.72;5015664;28;20424;-46
2024/01/24 10:07:07;;;;;;;0.40;0.20;;;12.20;99.90;;;11.68;100.00;97971.25;5018683;28;20033;-46
2024/01/24 10:09:33;;;;;;;0.73;0.20;;;12.20;99.90;;;11.82;100.00;97972.53;5002419;28;20025;-46
2024/01/24 10:11:58;;;;;;;0.10;0.10;;;12.40;99.90;;;11.85;100.00;97985.66;5016798;28;20068;-46
2024/01/24 10:14:24;;;;;;;0.55;0.15;;;12.40;99.90;;;11.98;100.00;97982.66;5015799;28;20069;-46